createdAt,value
2018-06-22T00:02:27.892Z,8.80
2018-06-22T00:04:56.250Z,8.80
2018-06-22T00:07:24.569Z,8.70
2018-06-22T00:09:52.890Z,8.70
2018-06-22T00:12:21.168Z,8.70
2018-06-22T00:14:49.481Z,8.60
2018-06-22T00:17:17.791Z,8.60
2018-06-22T00:19:46.084Z,8.60
2018-06-22T00:22:14.498Z,8.50
2018-06-22T00:24:42.824Z,8.50
2018-06-22T00:27:11.146Z,8.50
2018-06-22T00:29:39.468Z,8.50
2018-06-22T00:32:07.849Z,8.50
2018-06-22T00:34:36.148Z,8.40
2018-06-22T00:37:04.516Z,8.30
2018-06-22T00:39:32.812Z,8.30
2018-06-22T00:42:01.131Z,8.20
2018-06-22T00:44:29.447Z,8.30
2018-06-22T00:46:57.747Z,8.20
2018-06-22T00:49:26.028Z,8.10
2018-06-22T00:51:54.352Z,8.10
2018-06-22T00:54:22.679Z,8.10
2018-06-22T00:56:51.013Z,8.10
2018-06-22T00:59:19.358Z,8.10
2018-06-22T01:01:47.661Z,8.00
2018-06-22T01:04:15.974Z,8.00
2018-06-22T01:06:44.293Z,8.00
2018-06-22T01:09:13.462Z,8.00
2018-06-22T01:11:41.747Z,8.00
2018-06-22T01:14:10.385Z,7.90
2018-06-22T01:16:38.765Z,8.00
2018-06-22T01:19:07.733Z,8.00
2018-06-22T01:21:36.178Z,8.00
2018-06-22T01:24:04.606Z,7.90
2018-06-22T01:26:32.905Z,7.90
2018-06-22T01:29:06.635Z,7.90
2018-06-22T01:31:34.977Z,7.80
2018-06-22T01:34:03.306Z,7.80
2018-06-22T01:36:31.589Z,7.80
2018-06-22T01:38:59.902Z,7.80
2018-06-22T01:41:28.227Z,7.70
2018-06-22T01:43:56.514Z,7.70
2018-06-22T01:46:24.830Z,7.70
2018-06-22T01:48:53.181Z,7.70
2018-06-22T01:51:21.475Z,7.60
2018-06-22T01:53:49.800Z,7.50
2018-06-22T01:56:18.154Z,7.40
2018-06-22T01:58:46.620Z,7.40
2018-06-22T02:01:14.958Z,7.40
2018-06-22T02:03:43.275Z,7.40
2018-06-22T02:06:11.593Z,7.40
2018-06-22T02:08:39.957Z,7.50
2018-06-22T02:11:08.289Z,7.50
2018-06-22T02:13:36.745Z,7.60
2018-06-22T02:16:05.087Z,7.60
2018-06-22T02:18:33.547Z,7.70
2018-06-22T02:21:01.872Z,7.90
2018-06-22T02:23:30.169Z,7.90
2018-06-22T02:25:58.559Z,7.90
2018-06-22T02:28:26.870Z,7.90
2018-06-22T02:30:55.271Z,7.80
2018-06-22T02:33:23.541Z,7.80
2018-06-22T02:35:51.822Z,7.90
2018-06-22T02:38:20.138Z,7.90
2018-06-22T02:40:48.529Z,8.00
2018-06-22T02:43:16.845Z,8.00
2018-06-22T02:45:45.136Z,8.00
2018-06-22T02:48:13.423Z,8.10
2018-06-22T02:50:41.720Z,8.20
2018-06-22T02:53:10.093Z,8.20
2018-06-22T02:55:38.431Z,8.20
2018-06-22T02:58:06.763Z,8.30
2018-06-22T03:00:36.001Z,8.30
2018-06-22T03:03:04.339Z,8.30
2018-06-22T03:05:32.638Z,8.30
2018-06-22T03:08:00.970Z,8.30
2018-06-22T03:10:29.258Z,8.30
2018-06-22T03:12:57.576Z,8.20
2018-06-22T03:15:25.908Z,8.20
2018-06-22T03:17:54.195Z,8.20
2018-06-22T03:20:22.508Z,8.20
2018-06-22T03:22:50.856Z,8.30
2018-06-22T03:25:19.165Z,8.30
2018-06-22T03:27:47.557Z,8.30
2018-06-22T03:30:15.861Z,8.20
2018-06-22T03:32:44.246Z,8.30
2018-06-22T03:35:12.665Z,8.30
2018-06-22T03:37:41.003Z,8.30
2018-06-22T03:40:09.322Z,8.30
2018-06-22T03:42:37.656Z,8.50
2018-06-22T03:45:05.986Z,8.40
2018-06-22T03:47:34.320Z,8.40
2018-06-22T03:50:02.644Z,8.40
2018-06-22T03:52:30.965Z,8.40
2018-06-22T03:54:59.278Z,8.40
2018-06-22T03:57:28.502Z,8.40
2018-06-22T03:59:56.831Z,8.40
2018-06-22T04:02:25.183Z,8.50
2018-06-22T04:04:53.523Z,8.50
2018-06-22T04:07:21.877Z,8.50
2018-06-22T04:09:50.206Z,8.50
2018-06-22T04:12:18.563Z,8.60
2018-06-22T04:14:46.922Z,8.70
2018-06-22T04:17:15.223Z,8.60
2018-06-22T04:19:43.534Z,8.60
2018-06-22T04:22:11.933Z,8.60
2018-06-22T04:24:40.286Z,8.70
2018-06-22T04:27:08.576Z,8.70
2018-06-22T04:29:36.938Z,8.70
2018-06-22T04:32:05.253Z,8.70
2018-06-22T04:34:33.531Z,8.70
2018-06-22T04:37:01.847Z,8.70
2018-06-22T04:39:30.184Z,8.60
2018-06-22T04:41:58.490Z,8.80
2018-06-22T04:44:26.822Z,8.90
2018-06-22T04:46:55.132Z,9.00
2018-06-22T04:49:23.451Z,9.10
2018-06-22T04:51:51.802Z,9.20
2018-06-22T04:54:20.153Z,9.10
2018-06-22T04:56:48.524Z,9.30
2018-06-22T04:59:16.832Z,9.20
2018-06-22T05:01:45.175Z,9.30
2018-06-22T05:04:13.520Z,9.60
2018-06-22T05:06:41.901Z,9.60
2018-06-22T05:09:10.241Z,9.70
2018-06-22T05:11:38.553Z,9.80
2018-06-22T05:14:06.917Z,10.00
2018-06-22T05:16:35.479Z,9.90
2018-06-22T05:19:03.801Z,9.90
2018-06-22T05:21:32.123Z,10.00
2018-06-22T05:24:00.474Z,10.20
2018-06-22T05:26:28.813Z,10.30
2018-06-22T05:28:57.125Z,10.30
2018-06-22T05:31:25.441Z,10.50
2018-06-22T05:33:53.860Z,10.50
2018-06-22T05:36:22.210Z,10.70
2018-06-22T05:38:50.542Z,10.80
2018-06-22T05:41:18.902Z,10.80
2018-06-22T05:43:47.263Z,10.70
2018-06-22T05:46:15.643Z,10.70
2018-06-22T05:48:43.969Z,10.50
2018-06-22T05:51:12.985Z,10.30
2018-06-22T05:53:41.355Z,10.20
2018-06-22T05:56:10.022Z,10.00
2018-06-22T05:58:38.914Z,9.90
2018-06-22T06:01:07.333Z,10.00
2018-06-22T06:06:04.662Z,10.30
2018-06-22T06:08:33.010Z,10.40
2018-06-22T06:11:01.374Z,10.70
2018-06-22T06:13:29.709Z,10.80
2018-06-22T06:15:58.025Z,11.00
2018-06-22T06:18:26.370Z,10.80
2018-06-22T06:20:54.714Z,11.10
2018-06-22T06:23:23.068Z,11.50
2018-06-22T06:25:51.687Z,11.60
2018-06-22T06:28:20.039Z,11.50
2018-06-22T06:30:48.377Z,11.40
2018-06-22T06:33:16.691Z,11.80
2018-06-22T06:35:45.038Z,11.80
2018-06-22T06:38:13.412Z,11.80
2018-06-22T06:40:41.733Z,11.80
2018-06-22T06:43:10.048Z,11.50
2018-06-22T06:45:38.407Z,11.30
2018-06-22T06:48:06.732Z,11.50
2018-06-22T06:50:35.051Z,12.10
2018-06-22T06:53:03.377Z,12.30
2018-06-22T06:55:31.796Z,12.20
2018-06-22T06:58:00.130Z,12.20
2018-06-22T07:00:28.510Z,12.20
2018-06-22T07:02:56.896Z,12.20
2018-06-22T07:05:25.317Z,12.30
2018-06-22T07:07:54.011Z,12.20
2018-06-22T07:10:22.323Z,11.80
2018-06-22T07:12:50.685Z,11.90
2018-06-22T07:15:18.996Z,11.90
2018-06-22T07:17:47.345Z,11.80
2018-06-22T07:20:15.699Z,11.60
2018-06-22T07:22:44.025Z,11.40
2018-06-22T07:25:12.385Z,11.30
2018-06-22T07:27:40.710Z,11.10
2018-06-22T07:30:09.054Z,11.10
2018-06-22T07:32:37.441Z,11.30
2018-06-22T07:35:05.823Z,11.30
2018-06-22T07:37:34.205Z,11.20
2018-06-22T07:40:02.497Z,11.20
2018-06-22T07:42:30.880Z,11.10
2018-06-22T07:44:59.259Z,11.10
2018-06-22T07:47:27.666Z,11.20
2018-06-22T07:49:56.093Z,11.30
2018-06-22T07:52:24.435Z,11.50
2018-06-22T07:54:52.801Z,11.50
2018-06-22T07:57:21.157Z,11.60
2018-06-22T07:59:49.555Z,11.70
2018-06-22T08:02:17.906Z,11.90
2018-06-22T08:04:46.388Z,12.00
2018-06-22T08:07:14.842Z,11.90
2018-06-22T08:09:43.142Z,11.90
2018-06-22T08:12:11.512Z,12.20
2018-06-22T08:14:39.965Z,12.20
2018-06-22T08:17:08.313Z,12.20
2018-06-22T08:19:36.636Z,12.30
2018-06-22T08:22:04.957Z,12.40
2018-06-22T08:24:33.333Z,12.50
2018-06-22T08:27:02.360Z,12.60
2018-06-22T08:29:30.698Z,12.70
2018-06-22T08:31:59.035Z,12.80
2018-06-22T08:34:27.544Z,12.70
2018-06-22T08:36:56.080Z,12.90
2018-06-22T08:39:24.499Z,13.10
2018-06-22T08:41:53.537Z,13.40
2018-06-22T08:44:22.833Z,13.20
2018-06-22T08:46:51.171Z,13.20
2018-06-22T08:49:19.520Z,13.20
2018-06-22T08:51:47.881Z,13.30
2018-06-22T08:54:16.295Z,13.20
2018-06-22T08:56:44.646Z,13.20
2018-06-22T08:59:13.013Z,13.10
2018-06-22T09:01:41.322Z,13.00
2018-06-22T09:04:09.842Z,13.10
2018-06-22T09:06:38.887Z,13.10
2018-06-22T09:09:07.866Z,13.10
2018-06-22T09:11:36.189Z,13.20
2018-06-22T09:14:04.534Z,13.50
2018-06-22T09:16:33.366Z,13.70
2018-06-22T09:19:01.713Z,13.30
2018-06-22T09:21:30.521Z,13.30
2018-06-22T09:23:59.708Z,12.90
2018-06-22T09:26:28.272Z,12.80
2018-06-22T09:28:56.646Z,12.90
2018-06-22T09:31:25.235Z,12.70
2018-06-22T09:33:53.604Z,12.60
2018-06-22T09:36:22.025Z,12.60
2018-06-22T09:38:51.339Z,12.70
2018-06-22T09:41:20.144Z,12.80
2018-06-22T09:43:48.892Z,12.90
2018-06-22T09:46:18.302Z,13.00
2018-06-22T09:48:46.811Z,13.00
2018-06-22T09:51:16.551Z,12.90
2018-06-22T09:53:46.172Z,12.70
2018-06-22T09:56:14.741Z,12.50
2018-06-22T09:58:43.229Z,12.50
2018-06-22T10:01:11.658Z,12.60
2018-06-22T10:03:41.838Z,12.50
2018-06-22T10:06:10.279Z,12.40
2018-06-22T10:08:39.094Z,12.40
2018-06-22T10:11:07.557Z,12.40
2018-06-22T10:13:36.171Z,12.30
2018-06-22T10:16:04.557Z,12.30
2018-06-22T10:18:33.062Z,12.40
2018-06-22T10:21:01.465Z,12.40
2018-06-22T10:23:30.279Z,12.60
2018-06-22T10:25:58.726Z,12.80
2018-06-22T10:28:27.169Z,12.80
2018-06-22T10:31:01.539Z,13.00
2018-06-22T10:33:30.454Z,13.20
2018-06-22T10:35:58.770Z,13.30
2018-06-22T10:38:27.258Z,13.20
2018-06-22T10:40:55.737Z,13.10
2018-06-22T10:43:24.469Z,13.00
2018-06-22T10:45:52.855Z,12.80
2018-06-22T10:48:21.178Z,12.70
2018-06-22T10:50:49.554Z,12.80
2018-06-22T10:53:17.927Z,12.90
2018-06-22T10:55:46.262Z,13.00
2018-06-22T10:58:14.676Z,13.20
2018-06-22T11:00:43.057Z,13.40
2018-06-22T11:03:11.440Z,13.50
2018-06-22T11:05:39.807Z,13.60
2018-06-22T11:08:08.277Z,13.50
2018-06-22T11:10:36.625Z,13.00
2018-06-22T11:13:05.164Z,13.10
2018-06-22T11:15:33.919Z,13.20
2018-06-22T11:18:02.369Z,13.40
2018-06-22T11:20:30.752Z,13.30
2018-06-22T11:22:59.192Z,13.40
2018-06-22T11:25:27.588Z,13.40
2018-06-22T11:27:55.943Z,13.50
2018-06-22T11:30:24.264Z,14.00
2018-06-22T11:32:52.632Z,14.50
2018-06-22T11:35:21.962Z,14.90
2018-06-22T11:37:50.348Z,14.50
2018-06-22T11:40:18.856Z,14.50
2018-06-22T11:42:47.262Z,14.40
2018-06-22T11:45:15.779Z,14.70
2018-06-22T11:47:49.557Z,15.70
2018-06-22T11:50:17.972Z,15.80
2018-06-22T11:52:46.410Z,15.60
2018-06-22T11:55:14.742Z,15.10
2018-06-22T11:57:43.157Z,15.20
2018-06-22T12:00:11.485Z,14.90
2018-06-22T12:02:39.942Z,15.10
2018-06-22T12:05:08.302Z,15.60
2018-06-22T12:07:36.641Z,16.20
2018-06-22T12:10:12.742Z,16.00
2018-06-22T12:12:41.324Z,16.30
2018-06-22T12:15:10.094Z,17.00
2018-06-22T12:17:38.666Z,17.30
2018-06-22T12:20:07.062Z,16.60
2018-06-22T12:22:36.068Z,15.70
2018-06-22T12:25:04.506Z,15.50
2018-06-22T12:27:32.916Z,16.10
2018-06-22T12:30:04.335Z,16.50
2018-06-22T12:35:01.008Z,17.80
2018-06-22T12:37:29.429Z,17.70
2018-06-22T12:39:57.815Z,17.40
2018-06-22T12:42:26.195Z,17.20
2018-06-22T12:44:54.586Z,16.70
2018-06-22T12:47:22.932Z,16.90
2018-06-22T12:49:51.346Z,16.50
2018-06-22T12:52:19.714Z,16.50
2018-06-22T12:54:48.113Z,17.10
2018-06-22T12:59:44.571Z,17.60
2018-06-22T13:02:13.019Z,17.20
2018-06-22T13:04:41.367Z,17.10
2018-06-22T13:07:09.756Z,16.70
2018-06-22T13:09:38.645Z,16.40
2018-06-22T13:12:07.092Z,16.30
2018-06-22T13:17:00.688Z,16.40
2018-06-22T13:19:29.032Z,16.60
2018-06-22T13:21:57.421Z,16.30
2018-06-22T13:24:26.566Z,15.70
2018-06-22T13:26:55.032Z,15.30
2018-06-22T13:29:23.417Z,15.50
2018-06-22T13:31:51.848Z,15.70
2018-06-22T13:34:20.258Z,16.00
2018-06-22T13:36:49.135Z,16.60
2018-06-22T13:39:18.722Z,17.40
2018-06-22T13:41:48.337Z,17.10
2018-06-22T13:46:45.226Z,15.60
2018-06-22T13:49:14.280Z,15.30
2018-06-22T13:51:42.926Z,15.30
2018-06-22T13:54:11.907Z,15.30
2018-06-22T13:56:41.263Z,15.30
2018-06-22T14:01:37.756Z,15.10
2018-06-22T14:04:11.475Z,15.30
2018-06-22T14:06:45.289Z,15.30
2018-06-22T14:09:14.853Z,16.10
2018-06-22T14:11:43.697Z,17.10
2018-06-22T14:14:12.146Z,17.20
2018-06-22T14:16:41.392Z,17.10
2018-06-22T14:19:09.958Z,17.30
2018-06-22T14:21:38.435Z,18.90
2018-06-22T14:24:07.645Z,18.60
2018-06-22T14:26:36.060Z,19.10
2018-06-22T14:29:04.597Z,19.60
2018-06-22T14:31:32.989Z,19.10
2018-06-22T14:34:01.472Z,19.30
2018-06-22T14:36:29.882Z,19.60
2018-06-22T14:38:58.283Z,19.50
2018-06-22T14:41:26.823Z,20.40
2018-06-22T14:43:55.244Z,21.90
2018-06-22T14:46:23.675Z,21.30
2018-06-22T14:48:52.042Z,20.00
2018-06-22T14:51:20.467Z,21.20
2018-06-22T14:53:54.100Z,21.70
2018-06-22T14:56:27.790Z,22.60
2018-06-22T14:59:01.498Z,23.60
2018-06-22T15:01:35.281Z,24.10
2018-06-22T15:04:09.044Z,22.40
2018-06-22T15:06:42.699Z,22.50
2018-06-22T15:09:11.743Z,21.30
2018-06-22T15:11:40.097Z,19.50
2018-06-22T15:14:08.516Z,18.40
2018-06-22T15:16:36.902Z,17.40
2018-06-22T15:19:06.867Z,16.90
2018-06-22T15:21:35.249Z,16.30
2018-06-22T15:24:03.616Z,15.80
2018-06-22T15:26:31.979Z,15.70
2018-06-22T15:29:00.341Z,15.50
2018-06-22T15:31:28.736Z,15.40
2018-06-22T15:34:02.383Z,15.40
2018-06-22T15:36:36.197Z,15.40
2018-06-22T15:39:12.964Z,15.50
2018-06-22T15:41:47.075Z,15.60
2018-06-22T15:44:20.779Z,15.70
2018-06-22T15:46:54.350Z,15.90
2018-06-22T15:49:28.109Z,16.20
2018-06-22T15:52:01.789Z,16.30
2018-06-22T15:54:35.535Z,16.30
2018-06-22T15:57:03.931Z,16.20
2018-06-22T15:59:32.285Z,16.10
2018-06-22T16:02:05.964Z,15.90
2018-06-22T16:04:34.309Z,15.80
2018-06-22T16:07:02.695Z,15.70
2018-06-22T16:09:31.104Z,15.80
2018-06-22T16:12:04.706Z,15.90
2018-06-22T16:14:39.191Z,16.00
2018-06-22T16:17:12.937Z,16.50
2018-06-22T16:19:46.876Z,16.80
2018-06-22T16:22:20.705Z,16.40
2018-06-22T16:24:54.377Z,16.10
2018-06-22T16:27:22.808Z,15.90
2018-06-22T16:29:51.137Z,16.00
2018-06-22T16:32:19.659Z,16.20
2018-06-22T16:34:47.999Z,15.90
2018-06-22T16:37:16.331Z,15.80
2018-06-22T16:42:12.850Z,15.60
2018-06-22T16:44:41.246Z,15.90
2018-06-22T16:47:09.665Z,17.40
2018-06-22T16:49:38.003Z,18.50
2018-06-22T16:52:06.403Z,18.90
2018-06-22T16:54:34.776Z,19.40
2018-06-22T16:57:03.206Z,19.20
2018-06-22T16:59:31.579Z,18.40
2018-06-22T17:02:00.254Z,18.20
2018-06-22T17:07:01.946Z,16.60
2018-06-22T17:09:35.598Z,16.50
2018-06-22T17:12:09.148Z,16.40
2018-06-22T17:14:42.726Z,16.70
2018-06-22T17:19:21.956Z,16.60
2018-06-22T17:21:50.601Z,16.30
2018-06-22T17:24:19.044Z,15.60
2018-06-22T17:26:47.408Z,15.20
2018-06-22T17:29:15.792Z,15.20
2018-06-22T17:31:44.162Z,15.20
2018-06-22T17:34:12.523Z,15.10
2018-06-22T17:36:40.991Z,15.10
2018-06-22T17:39:10.910Z,14.90
2018-06-22T17:41:39.306Z,14.70
2018-06-22T17:44:07.962Z,14.60
2018-06-22T17:46:36.518Z,14.70
2018-06-22T17:49:04.937Z,14.60
2018-06-22T17:51:33.368Z,14.70
2018-06-22T17:54:01.773Z,14.80
2018-06-22T17:56:31.484Z,14.90
2018-06-22T17:59:05.400Z,15.10
2018-06-22T18:01:39.037Z,15.40
2018-06-22T18:04:12.716Z,15.60
2018-06-22T18:06:46.504Z,15.70
2018-06-22T18:09:20.049Z,15.90
2018-06-22T18:11:53.758Z,15.70
2018-06-22T18:14:22.465Z,15.90
2018-06-22T18:16:50.865Z,15.90
2018-06-22T18:19:19.507Z,15.70
2018-06-22T18:21:47.862Z,15.30
2018-06-22T18:24:16.257Z,15.00
2018-06-22T18:26:44.650Z,14.80
2018-06-22T18:29:13.010Z,14.50
2018-06-22T18:31:41.374Z,14.40
2018-06-22T18:34:09.744Z,14.40
2018-06-22T18:36:38.185Z,14.50
2018-06-22T18:39:09.269Z,14.40
2018-06-22T18:41:37.659Z,14.30
2018-06-22T18:44:05.997Z,14.20
2018-06-22T18:46:34.390Z,14.20
2018-06-22T18:49:02.754Z,14.10
2018-06-22T18:51:31.152Z,14.00
2018-06-22T18:54:04.863Z,13.90
2018-06-22T18:56:45.000Z,13.80
2018-06-22T18:59:18.839Z,13.70
2018-06-22T19:01:52.481Z,13.60
2018-06-22T19:04:21.001Z,13.60
2018-06-22T19:06:49.374Z,13.40
2018-06-22T19:09:17.754Z,13.40
2018-06-22T19:11:46.346Z,13.40
2018-06-22T19:14:14.840Z,13.40
2018-06-22T19:16:43.258Z,13.30
2018-06-22T19:19:11.798Z,13.20
2018-06-22T19:21:40.210Z,13.10
2018-06-22T19:24:08.602Z,12.90
2018-06-22T19:26:37.046Z,12.90
2018-06-22T19:29:05.445Z,12.80
2018-06-22T19:31:33.815Z,12.70
2018-06-22T19:34:02.304Z,12.70
2018-06-22T19:36:30.677Z,12.60
2018-06-22T19:38:59.202Z,12.50
2018-06-22T19:41:27.657Z,12.40
2018-06-22T19:44:01.279Z,12.30
2018-06-22T19:46:35.067Z,12.40
2018-06-22T19:49:08.871Z,12.30
2018-06-22T19:51:43.609Z,12.20
2018-06-22T19:54:12.014Z,12.20
2018-06-22T19:56:40.445Z,12.10
2018-06-22T19:59:08.821Z,12.00
2018-06-22T20:01:37.199Z,12.00
2018-06-22T20:04:06.176Z,11.90
2018-06-22T20:09:04.818Z,11.80
2018-06-22T20:11:34.193Z,11.70
2018-06-22T20:14:02.614Z,11.60
2018-06-22T20:16:31.026Z,11.50
2018-06-22T20:18:59.409Z,11.50
2018-06-22T20:21:28.637Z,11.40
2018-06-22T20:23:57.036Z,11.30
2018-06-22T20:26:25.467Z,11.20
2018-06-22T20:28:53.853Z,11.20
2018-06-22T20:31:28.147Z,11.20
2018-06-22T20:34:00.709Z,11.20
2018-06-22T20:36:34.481Z,11.20
2018-06-22T20:39:08.106Z,11.20
2018-06-22T20:41:42.247Z,11.20
2018-06-22T20:44:15.944Z,11.20
2018-06-22T20:46:49.751Z,11.20
2018-06-22T20:49:23.376Z,11.10
2018-06-22T20:51:51.753Z,11.10
2018-06-22T20:54:20.148Z,11.00
2018-06-22T20:56:48.592Z,11.00
2018-06-22T20:59:16.952Z,10.90
2018-06-22T21:01:45.326Z,10.90
2018-06-22T21:04:13.794Z,10.90
2018-06-22T21:06:42.169Z,10.90
2018-06-22T21:09:11.096Z,10.90
2018-06-22T21:11:39.454Z,10.80
2018-06-22T21:14:07.954Z,10.80
2018-06-22T21:16:37.070Z,10.80
2018-06-22T21:19:05.469Z,10.80
2018-06-22T21:21:39.116Z,10.90
2018-06-22T21:24:07.458Z,10.80
2018-06-22T21:26:35.831Z,10.80
2018-06-22T21:29:09.389Z,10.80
2018-06-22T21:31:43.115Z,10.70
2018-06-22T21:34:16.805Z,10.70
2018-06-22T21:36:50.494Z,10.70
2018-06-22T21:39:19.646Z,10.70
2018-06-22T21:41:48.012Z,10.70
2018-06-22T21:44:16.388Z,10.60
2018-06-22T21:46:44.790Z,10.60
2018-06-22T21:49:13.090Z,10.60
2018-06-22T21:51:41.412Z,10.60
2018-06-22T21:54:09.802Z,10.50
2018-06-22T21:56:38.184Z,10.50
2018-06-22T22:01:34.816Z,10.40
2018-06-22T22:04:03.183Z,10.30
2018-06-22T22:06:31.551Z,10.30
2018-06-22T22:08:59.933Z,10.30
2018-06-22T22:11:33.517Z,10.30
2018-06-22T22:14:01.877Z,10.20
2018-06-22T22:16:30.219Z,10.30
2018-06-22T22:18:58.559Z,10.30
2018-06-22T22:21:26.954Z,10.30
2018-06-22T22:23:55.320Z,10.30
2018-06-22T22:26:23.673Z,10.20
2018-06-22T22:28:52.015Z,10.20
2018-06-22T22:31:20.369Z,10.20
2018-06-22T22:33:49.132Z,10.30
2018-06-22T22:36:17.490Z,10.20
2018-06-22T22:38:45.845Z,10.20
2018-06-22T22:41:14.189Z,10.10
2018-06-22T22:43:42.514Z,10.20
2018-06-22T22:46:10.885Z,10.10
2018-06-22T22:48:39.232Z,10.10
2018-06-22T22:51:07.600Z,10.10
2018-06-22T22:53:35.908Z,10.00
2018-06-22T22:56:04.305Z,10.00
2018-06-22T22:58:32.666Z,9.90
2018-06-22T23:01:01.017Z,9.90
2018-06-22T23:03:29.377Z,10.00
2018-06-22T23:05:58.720Z,10.00
2018-06-22T23:08:27.080Z,10.00
2018-06-22T23:10:55.601Z,10.10
2018-06-22T23:13:23.952Z,10.20
2018-06-22T23:15:52.316Z,10.20
2018-06-22T23:18:20.831Z,10.20
2018-06-22T23:20:49.155Z,10.20
2018-06-22T23:23:31.725Z,10.20
2018-06-22T23:26:00.443Z,10.10
2018-06-22T23:28:28.897Z,10.10
2018-06-22T23:30:57.303Z,10.10
2018-06-22T23:33:25.634Z,10.10
2018-06-22T23:35:54.021Z,10.20
2018-06-22T23:38:22.349Z,10.10
2018-06-22T23:40:50.739Z,10.00
2018-06-22T23:43:19.041Z,10.00
2018-06-22T23:45:48.138Z,9.70
2018-06-22T23:48:17.216Z,9.70
2018-06-22T23:53:13.604Z,9.60
2018-06-22T23:55:42.156Z,9.60
2018-06-22T23:58:10.569Z,9.60
